createdAt,value
2022-08-29T00:00:21.381Z,4.40
2022-08-29T00:02:51.144Z,5.72
2022-08-29T00:05:26.806Z,5.90
2022-08-29T00:07:53.793Z,5.50
2022-08-29T00:10:21.129Z,5.25
2022-08-29T00:12:47.953Z,5.00
2022-08-29T00:15:15.737Z,4.35
2022-08-29T00:17:43.124Z,6.78
2022-08-29T00:20:12.993Z,4.53
2022-08-29T00:22:39.662Z,4.65
2022-08-29T00:25:08.382Z,4.25
2022-08-29T00:27:35.415Z,4.43
2022-08-29T00:30:04.189Z,6.63
2022-08-29T00:32:35.038Z,5.55
2022-08-29T00:35:26.270Z,4.72
2022-08-29T00:37:54.620Z,4.15
2022-08-29T00:40:26.889Z,3.78
2022-08-29T00:42:53.617Z,7.47
2022-08-29T00:45:20.800Z,6.38
2022-08-29T00:48:01.382Z,5.03
2022-08-29T00:50:41.949Z,5.63
2022-08-29T00:53:13.327Z,5.13
2022-08-29T00:55:40.852Z,4.32
2022-08-29T00:58:16.180Z,4.90
2022-08-29T01:00:45.022Z,6.28
2022-08-29T01:03:12.124Z,6.20
2022-08-29T01:05:38.814Z,4.90
2022-08-29T01:08:06.860Z,5.05
2022-08-29T01:10:54.218Z,6.18
2022-08-29T01:13:27.614Z,6.05
2022-08-29T01:15:54.997Z,8.07
2022-08-29T01:18:23.135Z,5.30
2022-08-29T01:21:17.253Z,4.90
2022-08-29T01:23:58.110Z,5.45
2022-08-29T01:26:28.453Z,6.20
2022-08-29T01:28:55.970Z,6.85
2022-08-29T01:31:37.843Z,5.97
2022-08-29T01:34:16.532Z,4.32
2022-08-29T01:36:51.765Z,4.35
2022-08-29T01:39:22.002Z,4.50
2022-08-29T01:41:50.102Z,6.30
2022-08-29T01:44:20.530Z,5.30
2022-08-29T01:46:49.594Z,3.67
2022-08-29T01:49:18.122Z,5.43
2022-08-29T01:51:45.760Z,4.25
2022-08-29T01:54:14.402Z,5.15
2022-08-29T01:56:45.569Z,6.28
2022-08-29T01:59:15.269Z,4.95
2022-08-29T02:01:57.112Z,4.15
2022-08-29T02:04:24.288Z,4.38
2022-08-29T02:06:50.972Z,3.75
2022-08-29T02:09:17.696Z,4.35
2022-08-29T02:11:46.376Z,4.03
2022-08-29T02:14:19.632Z,4.80
2022-08-29T02:16:47.771Z,4.95
2022-08-29T02:19:15.290Z,4.88
2022-08-29T02:21:42.044Z,6.72
2022-08-29T02:24:24.440Z,4.75
2022-08-29T02:26:52.835Z,4.55
2022-08-29T02:29:19.479Z,5.22
2022-08-29T02:31:46.210Z,5.38
2022-08-29T02:34:13.482Z,5.50
2022-08-29T02:36:41.413Z,6.05
2022-08-29T02:39:08.848Z,4.13
2022-08-29T02:41:35.888Z,5.40
2022-08-29T02:44:03.095Z,3.95
2022-08-29T02:46:29.758Z,3.67
2022-08-29T02:49:00.929Z,7.28
2022-08-29T02:51:30.723Z,4.90
2022-08-29T02:53:57.900Z,5.68
2022-08-29T02:56:24.726Z,5.40
2022-08-29T02:58:51.833Z,5.30
2022-08-29T03:01:21.088Z,4.68
2022-08-29T03:03:47.940Z,5.13
2022-08-29T03:06:14.611Z,4.22
2022-08-29T03:08:41.374Z,4.80
2022-08-29T03:11:08.275Z,5.75
2022-08-29T03:13:35.154Z,5.05
2022-08-29T03:16:02.489Z,5.63
2022-08-29T03:18:29.762Z,5.00
2022-08-29T03:20:57.353Z,3.92
2022-08-29T03:23:23.977Z,4.50
2022-08-29T03:25:50.939Z,4.28
2022-08-29T03:28:17.565Z,3.85
2022-08-29T03:30:44.711Z,5.18
2022-08-29T03:33:12.177Z,5.03
2022-08-29T03:35:39.448Z,5.53
2022-08-29T03:38:06.221Z,3.55
2022-08-29T03:40:33.757Z,3.20
2022-08-29T03:43:00.912Z,4.03
2022-08-29T03:45:27.561Z,4.85
2022-08-29T03:47:54.201Z,5.00
2022-08-29T03:50:21.685Z,4.95
2022-08-29T03:52:49.063Z,5.93
2022-08-29T03:55:16.423Z,4.22
2022-08-29T03:57:43.225Z,5.07
2022-08-29T04:00:16.053Z,5.05
2022-08-29T04:02:45.362Z,5.78
2022-08-29T04:05:12.854Z,5.18
2022-08-29T04:07:47.050Z,5.15
2022-08-29T04:10:34.442Z,4.40
2022-08-29T04:13:01.488Z,3.80
2022-08-29T04:15:29.543Z,4.32
2022-08-29T04:17:58.346Z,3.67
2022-08-29T04:20:27.451Z,6.13
2022-08-29T04:22:55.714Z,5.78
2022-08-29T04:25:24.813Z,6.00
2022-08-29T04:27:51.809Z,4.70
2022-08-29T04:30:21.314Z,4.72
2022-08-29T04:32:48.082Z,5.28
2022-08-29T04:35:16.010Z,5.68
2022-08-29T04:37:43.938Z,5.60
2022-08-29T04:40:15.586Z,5.25
2022-08-29T04:42:43.549Z,3.92
2022-08-29T04:45:12.780Z,4.55
2022-08-29T04:47:40.760Z,5.43
2022-08-29T04:50:09.701Z,4.75
2022-08-29T04:52:36.904Z,5.07
2022-08-29T04:55:05.069Z,3.75
2022-08-29T04:57:31.762Z,5.78
2022-08-29T04:59:58.885Z,4.53
2022-08-29T05:02:27.719Z,4.32
2022-08-29T05:04:56.470Z,5.78
2022-08-29T05:07:26.848Z,5.20
2022-08-29T05:10:00.887Z,4.70
2022-08-29T05:12:31.569Z,4.13
2022-08-29T05:14:58.239Z,4.43
2022-08-29T05:17:25.924Z,4.47
2022-08-29T05:19:53.393Z,4.80
2022-08-29T05:22:21.235Z,4.18
2022-08-29T05:24:48.914Z,5.70
2022-08-29T05:27:19.778Z,2.88
2022-08-29T05:29:48.735Z,4.68
2022-08-29T05:32:17.338Z,4.13
2022-08-29T05:34:45.278Z,5.85
2022-08-29T05:37:15.101Z,3.55
2022-08-29T05:39:43.060Z,4.55
2022-08-29T05:42:11.314Z,4.97
2022-08-29T05:44:39.137Z,4.18
2022-08-29T05:47:08.984Z,4.50
2022-08-29T05:49:37.545Z,4.40
2022-08-29T05:52:04.959Z,4.07
2022-08-29T05:54:34.826Z,5.32
2022-08-29T05:57:01.910Z,4.32
2022-08-29T05:59:28.578Z,5.82
2022-08-29T06:01:55.211Z,4.97
2022-08-29T06:04:21.975Z,3.38
2022-08-29T06:06:50.614Z,3.92
2022-08-29T06:09:17.357Z,4.32
2022-08-29T06:11:47.399Z,3.85
2022-08-29T06:14:14.983Z,5.50
2022-08-29T06:16:41.781Z,3.85
2022-08-29T06:19:08.603Z,4.88
2022-08-29T06:21:35.431Z,5.05
2022-08-29T06:24:02.232Z,4.05
2022-08-29T06:26:29.042Z,4.05
2022-08-29T06:28:55.686Z,4.63
2022-08-29T06:31:27.124Z,4.63
2022-08-29T06:33:56.894Z,4.57
2022-08-29T06:36:25.413Z,4.20
2022-08-29T06:38:55.071Z,5.45
2022-08-29T06:41:21.730Z,5.43
2022-08-29T06:43:48.339Z,5.90
2022-08-29T06:46:20.501Z,4.20
2022-08-29T06:48:47.187Z,3.97
2022-08-29T06:51:13.864Z,5.18
2022-08-29T06:53:40.740Z,6.22
2022-08-29T06:56:11.267Z,6.15
2022-08-29T06:58:38.895Z,5.50
2022-08-29T07:01:14.709Z,8.00
2022-08-29T07:03:42.037Z,5.40
2022-08-29T07:06:09.863Z,3.92
2022-08-29T07:08:42.219Z,3.55
2022-08-29T07:11:13.546Z,6.53
2022-08-29T07:13:40.890Z,4.25
2022-08-29T07:16:14.672Z,4.90
2022-08-29T07:18:41.409Z,5.20
2022-08-29T07:21:10.226Z,6.00
2022-08-29T07:23:37.236Z,3.53
2022-08-29T07:26:28.602Z,6.05
2022-08-29T07:28:59.686Z,6.35
2022-08-29T07:31:27.329Z,5.93
2022-08-29T07:34:02.909Z,4.68
2022-08-29T07:36:31.709Z,5.03
2022-08-29T07:38:58.445Z,4.30
2022-08-29T07:41:25.632Z,4.60
2022-08-29T07:43:52.651Z,6.38
2022-08-29T07:46:20.849Z,6.07
2022-08-29T07:48:48.180Z,5.28
2022-08-29T07:51:19.776Z,7.15
2022-08-29T07:53:47.058Z,7.72
2022-08-29T07:56:17.144Z,5.78
2022-08-29T07:58:44.396Z,6.78
2022-08-29T08:01:20.880Z,4.65
2022-08-29T08:03:48.686Z,6.05
2022-08-29T08:06:17.335Z,6.53
2022-08-29T08:08:44.397Z,4.93
2022-08-29T08:11:12.649Z,4.72
2022-08-29T08:13:40.037Z,6.47
2022-08-29T08:16:09.317Z,6.22
2022-08-29T08:18:38.309Z,6.43
2022-08-29T08:21:05.358Z,5.68
2022-08-29T08:23:32.258Z,6.85
2022-08-29T08:25:59.184Z,6.35
2022-08-29T08:28:28.118Z,6.70
2022-08-29T08:30:55.240Z,6.13
2022-08-29T08:33:22.010Z,5.55
2022-08-29T08:35:48.694Z,8.15
2022-08-29T08:38:16.956Z,6.22
2022-08-29T08:41:07.045Z,5.72
2022-08-29T08:43:56.559Z,8.05
2022-08-29T08:46:51.701Z,7.13
2022-08-29T08:49:31.332Z,8.25
2022-08-29T08:52:03.412Z,8.05
2022-08-29T08:54:51.838Z,9.25
2022-08-29T08:57:20.639Z,12.55
2022-08-29T08:59:55.291Z,9.10
2022-08-29T09:02:45.612Z,7.57
2022-08-29T09:05:24.191Z,7.82
2022-08-29T09:08:26.869Z,7.03
2022-08-29T09:11:04.201Z,7.63
2022-08-29T09:13:45.887Z,8.20
2022-08-29T09:16:27.326Z,12.43
2022-08-29T09:19:00.696Z,6.40
2022-08-29T09:21:43.883Z,8.43
2022-08-29T09:24:19.138Z,9.05
2022-08-29T09:26:45.825Z,10.70
2022-08-29T09:29:13.855Z,8.98
2022-08-29T09:31:41.121Z,11.10
2022-08-29T09:34:13.146Z,8.90
2022-08-29T09:36:52.914Z,9.50
2022-08-29T09:39:24.357Z,7.82
2022-08-29T09:41:57.452Z,8.90
2022-08-29T09:44:34.126Z,5.88
2022-08-29T09:47:09.525Z,9.30
2022-08-29T09:49:39.827Z,6.88
2022-08-29T09:52:15.646Z,8.13
2022-08-29T09:54:44.148Z,8.73
2022-08-29T09:57:19.410Z,7.13
2022-08-29T09:59:49.239Z,8.20
2022-08-29T10:02:24.162Z,7.57
2022-08-29T10:04:55.812Z,9.10
2022-08-29T10:07:36.400Z,7.75
2022-08-29T10:10:16.980Z,9.65
2022-08-29T10:13:17.173Z,9.77
2022-08-29T10:15:52.511Z,7.32
2022-08-29T10:18:44.182Z,6.68
2022-08-29T10:21:12.424Z,8.63
2022-08-29T10:24:05.803Z,8.68
2022-08-29T10:27:10.027Z,7.68
2022-08-29T10:29:47.992Z,6.72
2022-08-29T10:32:28.182Z,6.72
2022-08-29T10:35:31.004Z,6.30
2022-08-29T10:40:39.411Z,8.77
2022-08-29T10:46:15.601Z,6.82
2022-08-29T10:49:22.918Z,7.57
2022-08-29T10:52:01.754Z,9.00
2022-08-29T10:55:00.619Z,7.50
2022-08-29T10:57:47.149Z,7.10
2022-08-29T11:00:16.831Z,6.68
2022-08-29T11:02:49.009Z,5.82
2022-08-29T11:05:23.215Z,5.93
2022-08-29T11:08:01.217Z,6.20
2022-08-29T11:10:39.727Z,6.68
2022-08-29T11:13:19.779Z,6.88
2022-08-29T11:15:52.635Z,6.78
2022-08-29T11:18:33.355Z,6.55
2022-08-29T11:21:08.161Z,5.03
2022-08-29T11:23:40.590Z,6.28
2022-08-29T11:26:22.217Z,5.60
2022-08-29T11:29:11.320Z,6.50
2022-08-29T11:31:56.307Z,5.13
2022-08-29T11:34:46.806Z,5.90
2022-08-29T11:37:25.769Z,5.78
2022-08-29T11:40:08.342Z,4.95
2022-08-29T11:42:54.952Z,6.43
2022-08-29T11:45:37.381Z,4.78
2022-08-29T11:48:10.261Z,4.68
2022-08-29T11:50:38.622Z,4.97
2022-08-29T11:53:22.372Z,5.35
2022-08-29T11:56:14.271Z,5.93
2022-08-29T11:58:53.630Z,6.35
2022-08-29T12:01:35.441Z,4.45
2022-08-29T12:04:05.222Z,5.18
2022-08-29T12:06:35.077Z,6.93
2022-08-29T12:09:14.303Z,4.72
2022-08-29T12:12:02.338Z,5.25
2022-08-29T12:14:37.870Z,4.68
2022-08-29T12:17:26.654Z,5.93
2022-08-29T12:20:06.277Z,6.07
2022-08-29T12:22:51.693Z,5.43
2022-08-29T12:25:27.868Z,5.35
2022-08-29T12:28:23.749Z,5.65
2022-08-29T12:31:05.953Z,5.38
2022-08-29T12:33:52.326Z,4.50
2022-08-29T12:36:57.959Z,5.70
2022-08-29T12:40:03.655Z,4.50
2022-08-29T12:42:46.299Z,5.32
2022-08-29T12:45:18.807Z,4.47
2022-08-29T12:47:50.113Z,5.82
2022-08-29T12:50:25.185Z,4.97
2022-08-29T12:53:20.063Z,5.63
2022-08-29T12:55:50.673Z,4.65
2022-08-29T12:58:41.464Z,5.40
2022-08-29T13:01:37.894Z,5.65
2022-08-29T13:04:09.813Z,4.07
2022-08-29T13:06:37.855Z,4.57
2022-08-29T13:09:06.238Z,5.68
2022-08-29T13:11:33.480Z,3.97
2022-08-29T13:14:09.905Z,4.57
2022-08-29T13:16:37.779Z,5.40
2022-08-29T13:19:11.315Z,4.85
2022-08-29T13:21:38.637Z,6.07
2022-08-29T13:24:16.912Z,6.05
2022-08-29T13:27:04.328Z,5.68
2022-08-29T13:29:38.704Z,4.60
2022-08-29T13:32:26.666Z,5.05
2022-08-29T13:35:13.467Z,4.00
2022-08-29T13:37:44.765Z,5.97
2022-08-29T13:40:30.635Z,4.68
2022-08-29T13:42:59.045Z,5.50
2022-08-29T13:45:26.165Z,4.07
2022-08-29T13:48:24.453Z,3.72
2022-08-29T13:50:51.060Z,3.80
2022-08-29T13:53:17.786Z,5.07
2022-08-29T13:55:44.482Z,4.80
2022-08-29T13:58:14.656Z,3.72
2022-08-29T14:00:42.017Z,3.28
2022-08-29T14:03:09.299Z,4.45
2022-08-29T14:05:37.195Z,4.00
2022-08-29T14:08:05.130Z,3.85
2022-08-29T14:10:31.878Z,4.43
2022-08-29T14:12:58.642Z,5.18
2022-08-29T14:15:25.299Z,4.00
2022-08-29T14:17:51.961Z,3.25
2022-08-29T14:20:19.336Z,4.25
2022-08-29T14:22:46.960Z,3.30
2022-08-29T14:25:16.074Z,2.95
2022-08-29T14:27:43.651Z,4.43
2022-08-29T14:30:12.467Z,3.03
2022-08-29T14:32:39.401Z,2.90
2022-08-29T14:35:06.577Z,3.85
2022-08-29T14:37:34.410Z,4.63
2022-08-29T14:40:01.600Z,2.95
2022-08-29T14:42:30.617Z,3.25
2022-08-29T14:44:57.388Z,3.72
2022-08-29T14:47:24.494Z,3.50
2022-08-29T14:49:52.131Z,3.28
2022-08-29T14:52:19.355Z,2.70
2022-08-29T14:54:46.129Z,3.45
2022-08-29T14:57:12.985Z,3.00
2022-08-29T14:59:40.624Z,2.22
2022-08-29T15:02:08.001Z,2.90
2022-08-29T15:04:36.936Z,3.17
2022-08-29T15:07:10.587Z,3.88
2022-08-29T15:09:39.125Z,2.55
2022-08-29T15:12:06.637Z,2.40
2022-08-29T15:14:34.831Z,1.85
2022-08-29T15:17:03.690Z,2.20
2022-08-29T15:20:15.870Z,2.20
2022-08-29T15:22:19.721Z,2.13
2022-08-29T15:24:46.907Z,2.15
2022-08-29T15:27:13.714Z,2.17
2022-08-29T15:29:43.108Z,2.45
2022-08-29T15:32:12.037Z,1.42
2022-08-29T15:34:40.131Z,2.33
2022-08-29T15:37:08.374Z,2.20
2022-08-29T15:39:35.169Z,2.40
2022-08-29T15:42:05.419Z,1.88
2022-08-29T15:44:32.068Z,3.35
2022-08-29T15:46:58.729Z,1.67
2022-08-29T15:49:26.226Z,1.83
2022-08-29T15:51:54.014Z,2.42
2022-08-29T15:54:21.773Z,2.78
2022-08-29T15:56:49.533Z,1.88
2022-08-29T15:59:17.854Z,1.70
2022-08-29T16:01:53.390Z,2.80
2022-08-29T16:04:24.134Z,2.42
2022-08-29T16:06:52.059Z,2.00
2022-08-29T16:09:19.601Z,1.73
2022-08-29T16:11:48.538Z,1.73
2022-08-29T16:14:57.428Z,2.70
2022-08-29T16:17:05.397Z,2.13
2022-08-29T16:19:32.673Z,1.42
2022-08-29T16:22:04.120Z,1.70
2022-08-29T16:24:32.154Z,1.42
2022-08-29T16:27:00.013Z,1.20
2022-08-29T16:29:27.759Z,1.92
2022-08-29T16:31:58.001Z,1.35
2022-08-29T16:34:28.646Z,1.63
2022-08-29T16:36:56.918Z,1.45
2022-08-29T16:39:23.874Z,1.50
2022-08-29T16:41:50.924Z,1.77
2022-08-29T16:44:17.996Z,1.50
2022-08-29T16:46:44.625Z,1.40
2022-08-29T16:49:11.350Z,1.92
2022-08-29T16:51:38.120Z,1.80
2022-08-29T16:54:05.357Z,1.05
2022-08-29T16:56:32.813Z,1.33
2022-08-29T16:59:00.111Z,1.65
2022-08-29T17:01:31.988Z,1.00
2022-08-29T17:04:01.465Z,1.38
2022-08-29T17:06:29.402Z,1.15
2022-08-29T17:08:56.726Z,1.30
2022-08-29T17:11:23.990Z,1.40
2022-08-29T17:13:50.631Z,1.88
2022-08-29T17:16:18.070Z,0.95
2022-08-29T17:18:44.815Z,1.33
2022-08-29T17:21:11.756Z,1.35
2022-08-29T17:23:39.054Z,1.90
2022-08-29T17:26:09.261Z,1.58
2022-08-29T17:28:37.726Z,1.67
2022-08-29T17:31:05.352Z,1.48
2022-08-29T17:33:32.749Z,1.60
2022-08-29T17:35:59.726Z,1.42
2022-08-29T17:38:26.880Z,2.90
2022-08-29T17:40:58.317Z,2.67
2022-08-29T17:43:25.943Z,1.77
2022-08-29T17:45:53.004Z,1.40
2022-08-29T17:48:20.557Z,1.35
2022-08-29T17:50:48.449Z,1.77
2022-08-29T17:53:15.744Z,1.08
2022-08-29T17:55:42.570Z,1.30
2022-08-29T17:58:09.193Z,0.85
2022-08-29T18:00:36.318Z,1.13
2022-08-29T18:03:03.937Z,1.63
2022-08-29T18:05:31.008Z,1.52
2022-08-29T18:07:57.634Z,0.98
2022-08-29T18:10:25.222Z,1.30
2022-08-29T18:12:51.885Z,1.15
2022-08-29T18:15:18.917Z,1.30
2022-08-29T18:17:45.614Z,3.28
2022-08-29T18:20:15.606Z,1.48
2022-08-29T18:22:43.295Z,1.90
2022-08-29T18:25:11.422Z,1.15
2022-08-29T18:27:43.634Z,2.20
2022-08-29T18:30:13.476Z,1.10
2022-08-29T18:32:41.101Z,1.63
2022-08-29T18:35:08.435Z,1.55
2022-08-29T18:37:35.794Z,0.95
2022-08-29T18:40:04.129Z,1.52
2022-08-29T18:42:40.444Z,1.83
2022-08-29T18:45:09.399Z,1.15
2022-08-29T18:47:36.476Z,1.35
2022-08-29T18:50:42.943Z,2.25
2022-08-29T18:53:15.700Z,1.35
2022-08-29T18:55:50.456Z,2.17
2022-08-29T18:58:23.406Z,1.20
2022-08-29T19:00:50.485Z,0.65
2022-08-29T19:03:18.166Z,1.45
2022-08-29T19:05:48.403Z,1.00
2022-08-29T19:08:20.897Z,1.15
2022-08-29T19:10:48.113Z,1.52
2022-08-29T19:13:15.886Z,1.60
2022-08-29T19:15:47.036Z,2.40
2022-08-29T19:18:15.657Z,1.77
2022-08-29T19:21:01.294Z,0.88
2022-08-29T19:23:29.545Z,1.60
2022-08-29T19:25:56.994Z,1.75
2022-08-29T19:28:24.174Z,2.08
2022-08-29T19:30:52.054Z,1.52
2022-08-29T19:33:19.597Z,2.17
2022-08-29T19:35:51.047Z,1.70
2022-08-29T19:38:19.802Z,1.27
2022-08-29T19:40:48.435Z,1.70
2022-08-29T19:43:16.217Z,1.50
2022-08-29T19:45:44.518Z,1.77
2022-08-29T19:48:14.791Z,1.98
2022-08-29T19:50:47.675Z,2.75
2022-08-29T19:53:16.917Z,2.45
2022-08-29T19:55:54.166Z,2.20
2022-08-29T19:58:22.645Z,1.88
2022-08-29T20:00:55.555Z,2.28
2022-08-29T20:03:22.779Z,2.00
2022-08-29T20:05:49.542Z,2.72
2022-08-29T20:08:16.337Z,2.55
2022-08-29T20:10:44.645Z,2.08
2022-08-29T20:13:17.134Z,1.77
2022-08-29T20:15:44.193Z,2.75
2022-08-29T20:18:10.950Z,2.45
2022-08-29T20:20:39.833Z,2.45
2022-08-29T20:23:07.192Z,2.60
2022-08-29T20:25:35.030Z,1.90
2022-08-29T20:28:02.522Z,1.98
2022-08-29T20:30:31.480Z,2.55
2022-08-29T20:32:58.438Z,1.95
2022-08-29T20:35:44.311Z,2.08
2022-08-29T20:38:11.050Z,1.80
2022-08-29T20:40:46.643Z,2.58
2022-08-29T20:43:17.898Z,3.03
2022-08-29T20:45:45.172Z,3.13
2022-08-29T20:48:12.374Z,2.17
2022-08-29T20:50:39.327Z,1.90
2022-08-29T20:53:07.392Z,2.45
2022-08-29T20:55:34.185Z,2.35
2022-08-29T20:58:00.852Z,1.60
2022-08-29T21:00:27.837Z,2.70
2022-08-29T21:03:13.234Z,2.55
2022-08-29T21:05:42.788Z,3.45
2022-08-29T21:08:16.553Z,2.42
2022-08-29T21:10:46.076Z,1.88
2022-08-29T21:13:13.955Z,2.22
2022-08-29T21:15:41.980Z,2.22
2022-08-29T21:18:10.040Z,2.47
2022-08-29T21:20:44.865Z,2.88
2022-08-29T21:23:21.857Z,2.53
2022-08-29T21:25:53.705Z,1.92
2022-08-29T21:28:20.397Z,2.25
2022-08-29T21:30:47.036Z,2.10
2022-08-29T21:33:13.716Z,2.10
2022-08-29T21:35:40.913Z,2.50
2022-08-29T21:38:08.954Z,2.22
2022-08-29T21:40:36.198Z,2.10
2022-08-29T21:43:10.930Z,1.80
2022-08-29T21:45:39.975Z,1.73
2022-08-29T21:48:06.699Z,1.65
2022-08-29T21:50:33.382Z,2.15
2022-08-29T21:53:00.012Z,2.28
2022-08-29T21:55:26.785Z,1.88
2022-08-29T21:57:56.167Z,1.65
2022-08-29T22:00:32.574Z,2.20
2022-08-29T22:03:05.436Z,1.50
2022-08-29T22:05:32.902Z,2.05
2022-08-29T22:08:02.762Z,2.08
2022-08-29T22:10:32.350Z,1.50
2022-08-29T22:12:59.364Z,2.20
2022-08-29T22:15:45.724Z,1.42
2022-08-29T22:18:14.726Z,1.65
2022-08-29T22:20:43.409Z,2.60
2022-08-29T22:23:10.963Z,1.80
2022-08-29T22:25:37.645Z,1.77
2022-08-29T22:28:05.314Z,1.40
2022-08-29T22:30:32.843Z,2.15
2022-08-29T22:33:01.294Z,2.10
2022-08-29T22:35:28.405Z,2.08
2022-08-29T22:37:55.217Z,2.28
2022-08-29T22:40:22.068Z,2.03
2022-08-29T22:42:48.825Z,1.35
2022-08-29T22:45:16.866Z,1.92
2022-08-29T22:47:45.566Z,1.25
2022-08-29T22:50:18.503Z,2.05
2022-08-29T22:52:45.979Z,2.22
2022-08-29T22:55:18.240Z,1.77
2022-08-29T22:57:45.265Z,2.78
2022-08-29T23:00:19.262Z,1.65
2022-08-29T23:02:46.895Z,1.60
2022-08-29T23:05:14.030Z,3.40
2022-08-29T23:07:40.778Z,2.75
2022-08-29T23:10:08.592Z,1.52
2022-08-29T23:12:36.234Z,1.42
2022-08-29T23:15:14.875Z,2.00
2022-08-29T23:17:41.737Z,2.17
2022-08-29T23:20:11.400Z,1.52
2022-08-29T23:22:39.125Z,2.40
2022-08-29T23:25:10.682Z,1.83
2022-08-29T23:27:37.391Z,1.77
2022-08-29T23:30:07.059Z,1.88
2022-08-29T23:32:33.821Z,1.73
2022-08-29T23:35:00.455Z,2.10
2022-08-29T23:37:27.090Z,1.77
2022-08-29T23:39:53.805Z,1.55
2022-08-29T23:42:20.539Z,1.90
2022-08-29T23:44:48.501Z,1.38
2022-08-29T23:47:15.769Z,1.65
2022-08-29T23:49:42.497Z,2.10
2022-08-29T23:52:09.322Z,2.00
2022-08-29T23:54:36.740Z,2.72
2022-08-29T23:57:04.283Z,1.48
2022-08-29T23:59:52.182Z,2.15
